createdAt,value
2017-10-25T00:01:55.049Z,11.43
2017-10-25T00:04:24.427Z,12.37
2017-10-25T00:06:53.759Z,14.77
2017-10-25T00:09:22.730Z,13.67
2017-10-25T00:11:52.471Z,12.63
2017-10-25T00:14:21.467Z,14.47
2017-10-25T00:16:50.412Z,13.70
2017-10-25T00:19:19.465Z,13.10
2017-10-25T00:21:48.416Z,14.77
2017-10-25T00:24:17.774Z,13.73
2017-10-25T00:26:47.120Z,14.13
2017-10-25T00:29:16.489Z,14.17
2017-10-25T00:31:45.563Z,14.50
2017-10-25T00:34:14.921Z,13.60
2017-10-25T00:36:43.888Z,13.70
2017-10-25T00:39:13.622Z,13.33
2017-10-25T00:41:42.551Z,13.30
2017-10-25T00:44:11.524Z,13.60
2017-10-25T00:46:40.874Z,13.20
2017-10-25T00:49:09.903Z,13.47
2017-10-25T00:51:38.855Z,13.83
2017-10-25T00:54:07.803Z,13.73
2017-10-25T00:56:36.781Z,13.77
2017-10-25T00:59:05.731Z,13.13
2017-10-25T01:01:36.318Z,12.63
2017-10-25T01:04:05.413Z,12.47
2017-10-25T01:06:34.790Z,12.93
2017-10-25T01:09:03.749Z,13.33
2017-10-25T01:11:32.748Z,12.13
2017-10-25T01:14:01.689Z,12.47
2017-10-25T01:16:30.665Z,13.13
2017-10-25T01:18:59.745Z,12.40
2017-10-25T01:21:29.463Z,12.27
2017-10-25T01:23:58.404Z,13.13
2017-10-25T01:26:27.406Z,11.60
2017-10-25T01:28:56.419Z,13.17
2017-10-25T01:31:25.803Z,12.17
2017-10-25T01:33:54.742Z,12.77
2017-10-25T01:36:23.722Z,13.90
2017-10-25T01:38:53.118Z,13.30
2017-10-25T01:41:22.888Z,14.97
2017-10-25T01:43:51.908Z,13.10
2017-10-25T01:46:21.739Z,13.57
2017-10-25T01:48:50.667Z,14.20
2017-10-25T01:51:19.599Z,14.70
2017-10-25T01:53:49.328Z,15.17
2017-10-25T01:56:18.284Z,16.30
2017-10-25T01:58:47.267Z,14.27
2017-10-25T02:01:16.311Z,17.00
2017-10-25T02:03:45.668Z,15.30
2017-10-25T02:06:14.695Z,14.97
2017-10-25T02:08:43.694Z,16.93
2017-10-25T02:11:12.661Z,16.53
2017-10-25T02:13:42.453Z,15.47
2017-10-25T02:16:11.393Z,16.00
2017-10-25T02:18:40.373Z,16.53
2017-10-25T02:21:09.382Z,15.77
2017-10-25T02:23:38.375Z,15.77
2017-10-25T02:26:07.305Z,16.20
2017-10-25T02:28:36.297Z,15.47
2017-10-25T02:31:05.646Z,15.07
2017-10-25T02:33:34.638Z,13.90
2017-10-25T02:36:03.625Z,15.93
2017-10-25T02:38:32.573Z,14.37
2017-10-25T02:41:01.529Z,14.90
2017-10-25T02:43:30.496Z,15.07
2017-10-25T02:45:59.544Z,15.27
2017-10-25T02:48:28.510Z,15.20
2017-10-25T02:50:57.508Z,15.00
2017-10-25T02:53:26.454Z,14.57
2017-10-25T02:55:55.502Z,14.80
2017-10-25T02:58:24.454Z,13.67
2017-10-25T03:00:53.425Z,12.90
2017-10-25T03:03:22.773Z,12.23
2017-10-25T03:05:51.757Z,13.60
2017-10-25T03:08:20.704Z,13.40
2017-10-25T03:10:50.462Z,11.90
2017-10-25T03:13:19.409Z,12.37
2017-10-25T03:15:49.156Z,11.70
2017-10-25T03:18:18.104Z,11.10
2017-10-25T03:20:47.838Z,10.40
2017-10-25T03:23:16.795Z,10.50
2017-10-25T03:25:45.725Z,10.30
2017-10-25T03:28:14.702Z,10.37
2017-10-25T03:30:44.058Z,9.97
2017-10-25T03:33:14.533Z,11.30
2017-10-25T03:35:43.489Z,11.40
2017-10-25T03:38:13.226Z,11.20
2017-10-25T03:40:42.182Z,11.73
2017-10-25T03:43:11.157Z,10.90
2017-10-25T03:45:40.104Z,11.83
2017-10-25T03:48:09.077Z,12.43
2017-10-25T03:50:38.797Z,11.00
2017-10-25T03:53:07.809Z,10.50
2017-10-25T03:55:36.811Z,10.63
2017-10-25T03:58:05.800Z,10.63
2017-10-25T04:00:34.789Z,11.03
2017-10-25T04:03:03.729Z,10.50
2017-10-25T04:05:32.777Z,11.83
2017-10-25T04:08:02.490Z,9.47
2017-10-25T04:10:31.454Z,10.77
2017-10-25T04:13:00.395Z,10.80
2017-10-25T04:15:29.368Z,10.37
2017-10-25T04:17:58.761Z,10.97
2017-10-25T04:20:27.919Z,10.00
2017-10-25T04:22:57.728Z,9.13
2017-10-25T04:25:27.609Z,10.17
2017-10-25T04:27:56.599Z,10.80
2017-10-25T04:30:25.532Z,10.20
2017-10-25T04:32:55.033Z,11.23
2017-10-25T04:35:23.999Z,10.97
2017-10-25T04:37:53.492Z,10.27
2017-10-25T04:40:23.955Z,12.50
2017-10-25T04:42:53.731Z,13.03
2017-10-25T04:45:22.674Z,11.27
2017-10-25T04:47:52.440Z,11.80
2017-10-25T04:50:21.389Z,12.37
2017-10-25T04:52:50.355Z,11.03
2017-10-25T04:55:19.297Z,13.00
2017-10-25T04:57:48.279Z,13.07
2017-10-25T05:00:17.579Z,12.80
2017-10-25T05:02:46.558Z,13.10
2017-10-25T05:05:15.485Z,12.03
2017-10-25T05:07:44.473Z,11.83
2017-10-25T05:10:13.839Z,9.53
2017-10-25T05:12:43.581Z,10.53
2017-10-25T05:15:12.544Z,9.43
2017-10-25T05:17:41.509Z,9.77
2017-10-25T05:20:10.845Z,8.93
2017-10-25T05:22:40.590Z,9.73
2017-10-25T05:25:09.693Z,9.67
2017-10-25T05:27:38.634Z,10.60
2017-10-25T05:30:07.601Z,10.77
2017-10-25T05:32:36.556Z,10.53
2017-10-25T05:35:06.341Z,10.73
2017-10-25T05:37:36.826Z,11.53
2017-10-25T05:40:05.768Z,11.90
2017-10-25T05:42:34.746Z,13.57
2017-10-25T05:45:03.706Z,13.17
2017-10-25T05:47:32.706Z,14.00
2017-10-25T05:50:02.606Z,14.20
2017-10-25T05:52:31.564Z,13.40
2017-10-25T05:55:01.302Z,15.17
2017-10-25T05:57:30.251Z,14.80
2017-10-25T05:59:59.692Z,15.10
2017-10-25T06:02:28.645Z,14.30
2017-10-25T06:04:57.585Z,14.60
2017-10-25T06:07:26.560Z,14.97
2017-10-25T06:09:55.522Z,15.07
2017-10-25T06:12:24.527Z,14.53
2017-10-25T06:14:53.480Z,14.30
2017-10-25T06:17:22.437Z,14.67
2017-10-25T06:19:51.549Z,14.17
2017-10-25T06:22:20.511Z,14.30
2017-10-25T06:24:49.505Z,13.90
2017-10-25T06:27:18.460Z,13.60
2017-10-25T06:29:47.461Z,14.07
2017-10-25T06:32:16.411Z,16.60
2017-10-25T06:34:45.382Z,14.90
2017-10-25T06:37:14.363Z,13.80
2017-10-25T06:39:44.076Z,14.57
2017-10-25T06:42:13.255Z,14.80
2017-10-25T06:44:42.588Z,13.83
2017-10-25T06:47:11.540Z,11.63
2017-10-25T06:49:41.288Z,12.13
2017-10-25T06:52:10.224Z,13.53
2017-10-25T06:54:39.600Z,11.40
2017-10-25T06:57:08.553Z,12.90
2017-10-25T06:59:37.525Z,12.23
2017-10-25T07:02:06.498Z,11.50
2017-10-25T07:04:35.478Z,11.43
2017-10-25T07:07:04.504Z,10.37
2017-10-25T07:09:34.206Z,9.23
2017-10-25T07:12:03.928Z,9.67
2017-10-25T07:14:33.286Z,9.23
2017-10-25T07:17:02.653Z,9.43
2017-10-25T07:19:31.588Z,8.67
2017-10-25T07:22:00.552Z,7.30
2017-10-25T07:24:29.501Z,8.33
2017-10-25T07:26:59.248Z,7.70
2017-10-25T07:29:28.208Z,6.90
2017-10-25T07:31:57.184Z,6.53
2017-10-25T07:34:26.114Z,7.57
2017-10-25T07:36:55.838Z,5.50
2017-10-25T07:39:24.809Z,5.50
2017-10-25T07:41:53.771Z,5.77
2017-10-25T07:44:22.717Z,5.80
2017-10-25T07:46:52.445Z,6.43
2017-10-25T07:49:21.803Z,5.47
2017-10-25T07:51:50.821Z,5.67
2017-10-25T07:54:19.820Z,5.20
2017-10-25T07:56:48.752Z,5.93
2017-10-25T07:59:18.502Z,4.43
2017-10-25T08:01:47.441Z,5.93
2017-10-25T08:04:16.410Z,4.90
2017-10-25T08:06:45.345Z,4.87
2017-10-25T08:09:14.313Z,5.37
2017-10-25T08:11:43.794Z,4.90
2017-10-25T08:14:13.498Z,5.57
2017-10-25T08:16:42.816Z,3.83
2017-10-25T08:19:12.617Z,4.00
2017-10-25T08:21:41.587Z,4.03
2017-10-25T08:24:11.314Z,3.90
2017-10-25T08:26:40.650Z,5.00
2017-10-25T08:29:10.405Z,4.37
2017-10-25T08:31:39.388Z,4.13
2017-10-25T08:34:08.377Z,4.33
2017-10-25T08:36:38.316Z,4.93
2017-10-25T08:39:07.318Z,4.80
2017-10-25T08:41:36.662Z,4.40
2017-10-25T08:44:06.440Z,3.90
2017-10-25T08:46:36.924Z,5.30
2017-10-25T08:49:05.869Z,4.23
2017-10-25T08:51:34.873Z,4.07
2017-10-25T08:54:05.538Z,4.30
2017-10-25T08:56:34.457Z,5.40
2017-10-25T08:59:03.459Z,4.83
2017-10-25T09:01:32.470Z,4.80
2017-10-25T09:04:01.412Z,3.83
2017-10-25T09:06:30.361Z,5.00
2017-10-25T09:09:00.088Z,4.97
2017-10-25T09:11:29.030Z,5.40
2017-10-25T09:13:58.359Z,5.33
2017-10-25T09:16:28.114Z,5.20
2017-10-25T09:18:57.040Z,5.80
2017-10-25T09:21:26.002Z,5.90
2017-10-25T09:23:54.963Z,6.30
2017-10-25T09:26:24.670Z,5.77
2017-10-25T09:28:53.661Z,6.70
2017-10-25T09:31:22.616Z,6.10
2017-10-25T09:33:51.605Z,6.73
2017-10-25T09:36:20.566Z,7.63
2017-10-25T09:38:49.532Z,6.67
2017-10-25T09:41:18.496Z,7.20
2017-10-25T09:43:47.864Z,6.10
2017-10-25T09:46:17.203Z,6.67
2017-10-25T09:48:46.176Z,7.60
2017-10-25T09:51:15.514Z,7.20
2017-10-25T09:53:44.518Z,7.20
2017-10-25T09:56:14.214Z,5.80
2017-10-25T09:58:43.560Z,6.40
2017-10-25T10:01:12.483Z,6.70
2017-10-25T10:03:41.451Z,7.70
2017-10-25T10:06:10.597Z,6.60
2017-10-25T10:08:39.570Z,9.10
2017-10-25T10:11:08.529Z,8.07
2017-10-25T10:13:37.891Z,9.50
2017-10-25T10:16:06.871Z,9.30
2017-10-25T10:18:35.831Z,9.87
2017-10-25T10:21:05.586Z,9.50
2017-10-25T10:23:34.549Z,9.87
2017-10-25T10:26:03.548Z,11.25
2017-10-25T10:28:32.500Z,10.57
2017-10-25T10:31:02.238Z,9.98
2017-10-25T10:33:31.178Z,10.13
2017-10-25T10:36:00.558Z,8.83
2017-10-25T10:38:29.487Z,9.03
2017-10-25T10:40:58.466Z,8.90
2017-10-25T10:43:27.398Z,8.07
2017-10-25T10:45:56.388Z,8.60
2017-10-25T10:48:26.100Z,9.77
2017-10-25T10:50:55.437Z,9.83
2017-10-25T10:53:25.029Z,10.00
2017-10-25T10:55:54.004Z,10.27
2017-10-25T10:58:23.355Z,9.80
2017-10-25T11:00:52.330Z,10.70
2017-10-25T11:03:21.785Z,10.60
2017-10-25T11:05:50.773Z,10.77
2017-10-25T11:08:20.144Z,10.40
2017-10-25T11:10:49.157Z,9.90
2017-10-25T11:13:18.537Z,11.20
2017-10-25T11:15:47.506Z,10.67
2017-10-25T11:18:16.493Z,11.17
2017-10-25T11:20:45.444Z,10.83
2017-10-25T11:23:14.425Z,12.10
2017-10-25T11:25:43.430Z,9.33
2017-10-25T11:28:12.869Z,10.00
2017-10-25T11:30:41.899Z,10.30
2017-10-25T11:33:11.123Z,9.23
2017-10-25T11:35:40.162Z,9.10
2017-10-25T11:38:09.158Z,8.33
2017-10-25T11:40:38.123Z,8.30
2017-10-25T11:43:07.191Z,8.57
2017-10-25T11:45:36.949Z,7.60
2017-10-25T11:48:05.914Z,8.40
2017-10-25T11:50:34.840Z,8.20
2017-10-25T11:53:03.810Z,8.07
2017-10-25T11:55:32.901Z,8.50
2017-10-25T11:58:02.713Z,7.93
2017-10-25T12:00:31.654Z,7.37
2017-10-25T12:03:00.610Z,7.57
2017-10-25T12:05:30.216Z,8.17
2017-10-25T12:08:00.205Z,7.77
2017-10-25T12:10:30.073Z,7.13
2017-10-25T12:13:00.287Z,6.20
2017-10-25T12:15:30.385Z,7.33
2017-10-25T12:18:01.262Z,7.03
2017-10-25T12:20:31.106Z,6.80
2017-10-25T12:23:00.522Z,6.47
2017-10-25T12:25:30.723Z,6.07
2017-10-25T12:28:00.510Z,7.40
2017-10-25T12:30:29.650Z,5.00
2017-10-25T12:32:59.967Z,6.43
2017-10-25T12:35:28.997Z,6.47
2017-10-25T12:37:58.107Z,6.30
2017-10-25T12:40:27.145Z,5.60
2017-10-25T12:42:57.541Z,6.13
2017-10-25T12:45:27.552Z,6.53
2017-10-25T12:47:56.602Z,5.27
2017-10-25T12:50:25.880Z,5.47
2017-10-25T12:52:56.184Z,6.03
2017-10-25T12:55:25.650Z,6.90
2017-10-25T12:57:55.579Z,5.10
2017-10-25T13:00:25.474Z,6.27
2017-10-25T13:02:55.067Z,5.80
2017-10-25T13:05:24.945Z,6.40
2017-10-25T13:07:54.636Z,6.20
2017-10-25T13:10:29.616Z,5.87
2017-10-25T13:13:09.842Z,4.93
2017-10-25T13:15:51.735Z,3.97
2017-10-25T13:18:36.903Z,3.47
2017-10-25T13:21:06.658Z,3.53
2017-10-25T13:23:35.651Z,3.43
2017-10-25T13:26:04.623Z,3.83
2017-10-25T13:28:33.565Z,3.03
2017-10-25T13:31:03.284Z,4.73
2017-10-25T13:33:33.036Z,3.80
2017-10-25T13:36:02.370Z,3.37
2017-10-25T13:38:31.349Z,3.80
2017-10-25T13:41:00.308Z,3.53
2017-10-25T13:43:29.678Z,4.03
2017-10-25T13:45:59.376Z,4.07
2017-10-25T13:48:29.126Z,4.00
2017-10-25T13:50:58.083Z,2.93
2017-10-25T13:53:27.448Z,2.60
2017-10-25T13:55:56.381Z,2.80
2017-10-25T13:58:25.745Z,2.30
2017-10-25T14:00:54.670Z,1.73
2017-10-25T14:03:24.436Z,1.83
2017-10-25T14:05:53.358Z,1.40
2017-10-25T14:08:23.105Z,1.33
2017-10-25T14:10:52.039Z,1.03
2017-10-25T14:13:20.992Z,1.30
2017-10-25T14:15:49.961Z,1.47
2017-10-25T14:18:19.677Z,1.33
2017-10-25T14:20:48.626Z,1.90
2017-10-25T14:23:17.566Z,1.07
2017-10-25T14:25:46.525Z,2.07
2017-10-25T14:28:27.974Z,1.33
2017-10-25T14:30:56.908Z,1.17
2017-10-25T14:33:26.340Z,1.40
2017-10-25T14:35:56.124Z,1.03
2017-10-25T14:38:25.210Z,1.20
2017-10-25T14:40:56.477Z,1.03
2017-10-25T14:43:25.475Z,1.00
2017-10-25T14:45:54.873Z,0.90
2017-10-25T14:48:24.128Z,0.70
2017-10-25T14:50:53.555Z,1.10
2017-10-25T14:53:24.591Z,0.80
2017-10-25T14:55:54.374Z,0.50
2017-10-25T14:58:23.902Z,1.10
2017-10-25T15:00:53.308Z,0.70
2017-10-25T15:03:22.779Z,0.60
2017-10-25T15:05:51.795Z,0.60
2017-10-25T15:08:20.813Z,1.10
2017-10-25T15:10:50.838Z,0.70
2017-10-25T15:13:20.892Z,0.70
2017-10-25T15:15:49.954Z,0.60
2017-10-25T15:18:19.763Z,0.73
2017-10-25T15:20:48.782Z,0.63
2017-10-25T15:23:17.980Z,1.07
2017-10-25T15:25:47.887Z,0.77
2017-10-25T15:28:16.938Z,1.33
2017-10-25T15:30:47.513Z,0.60
2017-10-25T15:33:17.163Z,1.10
2017-10-25T15:35:47.027Z,1.47
2017-10-25T15:38:16.038Z,2.70
2017-10-25T15:40:45.894Z,0.73
2017-10-25T15:43:16.319Z,1.10
2017-10-25T15:45:47.208Z,1.40
2017-10-25T15:48:17.040Z,0.87
2017-10-25T15:50:46.300Z,1.10
2017-10-25T15:53:16.169Z,2.67
2017-10-25T15:55:45.321Z,0.87
2017-10-25T15:58:14.343Z,1.17
2017-10-25T16:00:44.288Z,1.77
2017-10-25T16:03:13.770Z,2.03
2017-10-25T16:05:43.536Z,1.53
2017-10-25T16:08:13.488Z,1.20
2017-10-25T16:10:42.466Z,0.97
2017-10-25T16:13:11.424Z,0.70
2017-10-25T16:15:42.062Z,1.13
2017-10-25T16:18:11.143Z,1.10
2017-10-25T16:20:40.202Z,0.97
2017-10-25T16:23:09.609Z,1.00
2017-10-25T16:25:39.518Z,1.00
2017-10-25T16:28:09.724Z,0.83
2017-10-25T16:30:38.706Z,1.10
2017-10-25T16:33:09.556Z,0.90
2017-10-25T16:35:39.903Z,1.10
2017-10-25T16:38:09.736Z,1.00
2017-10-25T16:40:39.058Z,1.00
2017-10-25T16:43:08.869Z,1.27
2017-10-25T16:45:37.867Z,0.97
2017-10-25T16:48:07.006Z,0.97
2017-10-25T16:50:36.042Z,1.30
2017-10-25T16:53:05.117Z,1.30
2017-10-25T16:55:34.183Z,1.17
2017-10-25T16:58:03.614Z,1.10
2017-10-25T17:00:32.613Z,1.30
2017-10-25T17:03:01.657Z,1.20
2017-10-25T17:05:30.611Z,0.87
2017-10-25T17:07:59.954Z,1.37
2017-10-25T17:10:29.677Z,2.50
2017-10-25T17:12:59.470Z,1.40
2017-10-25T17:15:28.966Z,1.43
2017-10-25T17:17:58.372Z,1.10
2017-10-25T17:20:27.400Z,1.40
2017-10-25T17:22:56.469Z,2.30
2017-10-25T17:25:27.105Z,1.67
2017-10-25T17:27:56.879Z,1.90
2017-10-25T17:30:25.862Z,2.97
2017-10-25T17:32:55.680Z,2.83
2017-10-25T17:35:24.684Z,4.00
2017-10-25T17:37:54.434Z,2.70
2017-10-25T17:40:23.479Z,2.10
2017-10-25T17:42:52.518Z,1.97
2017-10-25T17:45:22.274Z,1.90
2017-10-25T17:47:51.269Z,2.77
2017-10-25T17:50:20.274Z,2.70
2017-10-25T17:52:49.661Z,1.93
2017-10-25T17:55:18.651Z,2.27
2017-10-25T17:57:47.631Z,1.73
2017-10-25T18:00:16.675Z,1.80
2017-10-25T18:02:45.737Z,2.40
2017-10-25T18:05:14.745Z,1.97
2017-10-25T18:07:43.875Z,1.90
2017-10-25T18:10:12.888Z,1.73
2017-10-25T18:12:41.975Z,2.07
2017-10-25T18:15:10.947Z,2.10
2017-10-25T18:17:40.035Z,2.70
2017-10-25T18:20:09.605Z,2.83
2017-10-25T18:22:38.602Z,3.17
2017-10-25T18:25:07.594Z,3.43
2017-10-25T18:27:36.635Z,2.83
2017-10-25T18:30:05.637Z,3.67
2017-10-25T18:32:35.464Z,4.13
2017-10-25T18:35:04.434Z,3.37
2017-10-25T18:37:34.982Z,2.90
2017-10-25T18:40:04.019Z,2.77
2017-10-25T18:42:33.739Z,2.60
2017-10-25T18:45:03.738Z,3.00
2017-10-25T18:47:32.718Z,2.10
2017-10-25T18:50:01.758Z,2.20
2017-10-25T18:52:32.002Z,1.43
2017-10-25T18:55:01.772Z,1.83
2017-10-25T18:57:31.539Z,2.00
2017-10-25T19:00:00.521Z,2.00
2017-10-25T19:02:35.634Z,1.80
2017-10-25T19:05:40.584Z,2.03
2017-10-25T19:08:15.938Z,2.27
2017-10-25T19:11:01.570Z,2.30
2017-10-25T19:13:34.863Z,2.50
2017-10-25T19:16:09.669Z,2.50
2017-10-25T19:19:08.297Z,2.07
2017-10-25T19:22:03.922Z,1.93
2017-10-25T19:27:43.325Z,1.90
2017-10-25T19:30:26.047Z,2.13
2017-10-25T19:33:08.793Z,2.03
2017-10-25T19:39:17.833Z,2.37
2017-10-25T19:42:02.389Z,2.60
2017-10-25T19:47:13.353Z,2.20
2017-10-25T19:49:44.461Z,2.70
2017-10-25T19:52:13.513Z,3.33
2017-10-25T19:54:42.485Z,2.87
2017-10-25T19:57:11.965Z,2.20
2017-10-25T20:02:23.529Z,2.70
2017-10-25T20:05:02.073Z,2.47
2017-10-25T20:07:32.216Z,2.83
2017-10-25T20:10:01.182Z,2.60
2017-10-25T20:12:30.184Z,2.57
2017-10-25T20:14:59.549Z,2.20
2017-10-25T20:17:28.556Z,2.73
2017-10-25T20:19:57.815Z,2.40
2017-10-25T20:22:27.237Z,2.23
2017-10-25T20:24:56.245Z,2.30
2017-10-25T20:27:25.217Z,2.40
2017-10-25T20:29:54.242Z,1.93
2017-10-25T20:32:23.687Z,2.20
2017-10-25T20:34:53.401Z,2.00
2017-10-25T20:37:22.405Z,2.10
2017-10-25T20:39:51.756Z,2.47
2017-10-25T20:42:20.846Z,3.30
2017-10-25T20:44:49.902Z,2.83
2017-10-25T20:47:19.669Z,2.57
2017-10-25T20:49:48.672Z,2.93
2017-10-25T20:52:18.522Z,2.20
2017-10-25T20:54:47.553Z,2.17
2017-10-25T20:57:16.471Z,2.27
2017-10-25T20:59:45.843Z,2.67
2017-10-25T21:02:14.790Z,2.40
2017-10-25T21:04:44.095Z,2.30
2017-10-25T21:07:13.082Z,2.40
2017-10-25T21:09:42.808Z,2.00
2017-10-25T21:12:11.759Z,2.20
2017-10-25T21:14:41.142Z,2.10
2017-10-25T21:17:10.070Z,2.40
2017-10-25T21:19:39.901Z,2.73
2017-10-25T21:22:08.828Z,2.43
2017-10-25T21:24:37.791Z,2.63
2017-10-25T21:27:06.734Z,3.20
2017-10-25T21:29:35.785Z,2.73
2017-10-25T21:32:04.754Z,2.60
2017-10-25T21:34:34.450Z,3.00
2017-10-25T21:37:03.425Z,3.13
2017-10-25T21:39:33.124Z,3.20
2017-10-25T21:42:02.848Z,3.30
2017-10-25T21:44:31.814Z,3.10
2017-10-25T21:47:00.790Z,2.97
2017-10-25T21:49:29.752Z,3.40
2017-10-25T21:51:59.478Z,3.30
2017-10-25T21:54:28.509Z,2.93
2017-10-25T21:56:58.232Z,2.73
2017-10-25T21:59:27.160Z,3.00
2017-10-25T22:01:56.107Z,3.00
2017-10-25T22:04:25.820Z,3.10
2017-10-25T22:06:55.541Z,3.53
2017-10-25T22:09:24.498Z,3.40
2017-10-25T22:11:54.240Z,3.17
2017-10-25T22:14:23.182Z,2.73
2017-10-25T22:16:52.146Z,3.60
2017-10-25T22:19:21.485Z,3.77
2017-10-25T22:21:50.433Z,3.10
2017-10-25T22:24:19.364Z,2.80
2017-10-25T22:26:49.095Z,3.20
2017-10-25T22:29:18.781Z,3.13
2017-10-25T22:31:48.137Z,3.90
2017-10-25T22:34:17.844Z,4.10
2017-10-25T22:36:46.819Z,3.10
2017-10-25T22:39:16.144Z,4.67
2017-10-25T22:41:45.294Z,4.40
2017-10-25T22:44:14.242Z,3.50
2017-10-25T22:46:43.169Z,4.03
2017-10-25T22:49:12.539Z,4.00
2017-10-25T22:51:41.474Z,3.40
2017-10-25T22:54:11.414Z,3.67
2017-10-25T22:56:40.777Z,3.97
2017-10-25T22:59:09.754Z,3.57
2017-10-25T23:01:38.689Z,4.17
2017-10-25T23:04:07.619Z,4.07
2017-10-25T23:06:36.577Z,4.30
2017-10-25T23:09:05.603Z,4.40
2017-10-25T23:11:34.659Z,4.63
2017-10-25T23:14:03.605Z,4.40
2017-10-25T23:16:32.541Z,3.80
2017-10-25T23:19:01.610Z,4.90
2017-10-25T23:21:31.332Z,5.07
2017-10-25T23:24:01.060Z,4.03
2017-10-25T23:26:29.997Z,4.80
2017-10-25T23:28:58.970Z,4.70
2017-10-25T23:31:27.889Z,4.63
2017-10-25T23:33:57.723Z,4.97
2017-10-25T23:36:26.681Z,4.83
2017-10-25T23:38:55.635Z,4.00
2017-10-25T23:41:24.602Z,4.30
2017-10-25T23:43:53.578Z,4.50
2017-10-25T23:46:22.919Z,4.90
2017-10-25T23:48:51.857Z,4.93
2017-10-25T23:51:20.819Z,4.67
2017-10-25T23:53:49.831Z,4.40
2017-10-25T23:56:18.791Z,4.47
2017-10-25T23:58:47.731Z,4.77
